Plateau City, Colorado
Current Conditions -  °F | °C
As of 8:53 PM on Thursday 25 Dec 2014 (Local Time) from KRIL Reporting Station
Overcast Overcast  
Wind Chill: 21°   Ceiling: 4200
Heat Index: 29°   Visibility: 10mi
Dew Point: 24°   Wind: 8mph
Humidity: 82%   Direction: 260°W
Pressure: 29.64"   Gusts: NA
Location:  39.245°N, 107.783°W
Report Text: KRIL 260353Z AUTO 26007KT 10SM BKN042 OVC050 M02/M04 A2964 RMK AO2 SLP058 T10171044
Loading
Personal Weather Stations






























Interactive Weather Map New forecast layout! Learn more

10-Day Weather Forecast

Advertisements
Track Severe Weather on mobile